Flight Track Log - Related Links

Times and Time Zones

All times are in EST time to prevent confusion due to time zone crossing. See the JBU56 flight status page for this flight to view local times or setup timezone preferences in your user account.

Time Position Orientation Groundspeed Altitude Reporting Facility
EST Latitude Longitude Course Direction KTS MPH feet Rate Location/Type
Tue 09:57:42 AM 38.9833 -77.5333 90° East 214 246 2,500  Level Potomac TRACON
Tue 09:58:36 AM 39.0333 -77.5500 345° North 277 319 4,100 2,421 Climbing Potomac TRACON
Tue 09:59:36 AM 39.1167 -77.5333 North 317 365 7,100 2,900 Climbing Potomac TRACON
Tue 10:00:00 AM 39.2150 -76.9996 74° East  Level Estimated
Tue 10:00:36 AM 39.1667 -77.4500 52° Northeast 319 367 9,900  Level Potomac TRACON
Tue 10:01:00 AM 39.2816 -76.8840 90° East  Level Estimated
Tue 10:01:36 AM 39.1667 -77.3333 90° East 349 402 10,200  Level Potomac TRACON
Tue 10:02:00 AM 39.3481 -76.7681 90° East  Level Estimated
Tue 10:03:34 AM 39.1083 -77.0869 107° East 399 459 14,500  Level Washington Center
Tue 10:04:35 AM 39.0956 -76.9475 97° East 394 453 17,000 1,765 Climbing Washington Center
Tue 10:05:33 AM 39.1094 -76.7981 83° East 394 453 18,000 1,462 Climbing Washington Center
Tue 10:06:34 AM 39.1192 -76.6431 85° East 410 472 19,900 1,770 Climbing Washington Center
Tue 10:07:35 AM 39.1331 -76.4747 84° East 440 506 21,600 1,475 Climbing Washington Center
Tue 10:08:32 AM 39.1447 -76.3061 85° East 460 529 22,800 458 Climbing Washington Center
Tue 10:09:33 AM 39.1642 -76.1378 81° East 472 543 22,500 99 Descending Washington Center
Tue 10:10:33 AM 39.1817 -75.9664 82° East 482 555 23,000 744 Climbing Washington Center
Tue 10:11:34 AM 39.2425 -75.8139 63° Northeast 475 547 24,000 1,131 Climbing Washington Center
Tue 10:12:35 AM 39.3425 -75.6881 44° Northeast 475 547 25,300 1,240 Climbing Washington Center
Tue 10:13:35 AM 39.4428 -75.5594 45° Northeast 489 563 26,500 1,220 Climbing Washington Center
Tue 10:14:33 AM 39.5447 -75.4247 46° Northeast 501 577 27,700 1,109 Climbing Washington Center
Tue 10:15:34 AM 39.6486 -75.2897 45° Northeast 512 589 28,700 1,165 Climbing Washington Center
Tue 10:16:16 AM 39.7222 -75.1864 47° Northeast 536 617 29,700 1,294 Climbing New York Center
Tue 10:17:16 AM 39.8325 -75.0286 48° Northeast 548 631 30,900 650 Climbing New York Center
Tue 10:18:16 AM 39.9314 -74.8803 49° Northeast 542 624 31,000 50 Climbing New York Center
Tue 10:19:16 AM 40.0242 -74.7339 50° Northeast 542 624 31,000  Level New York Center
Tue 10:20:16 AM 40.1228 -74.5875 49° Northeast 535 616 31,000  Level New York Center
Tue 10:21:16 AM 40.2211 -74.4381 49° Northeast 535 616 31,000  Level New York Center
Tue 10:22:16 AM 40.3175 -74.2881 50° Northeast 535 616 31,000  Level New York Center
Tue 10:23:16 AM 40.4181 -74.1322 50° Northeast 540 621 31,000  Level New York Center
Tue 10:25:03 AM 40.5767 -73.8908 49° Northeast 555 639 31,000 -144 Level Boston Center
Tue 10:26:03 AM 40.6944 -73.7050 50° Northeast 552 635 30,600 -1,377 Descending Boston Center
Tue 10:27:05 AM 40.7925 -73.5500 50° Northeast 551 634 28,200 -1,770 Descending Boston Center
Tue 10:28:05 AM 40.8878 -73.3992 50° Northeast 537 618 27,000 -942 Descending Boston Center
Tue 10:29:06 AM 40.9889 -73.2531 47° Northeast 527 606 26,300 -1,440 Descending Boston Center
Tue 10:30:10 AM 41.0847 -73.1100 48° Northeast 524 603 24,000 -2,112 Descending Boston Center
Tue 10:31:11 AM 41.1744 -72.9739 49° Northeast 503 579 21,900 -1,488 Descending Boston Center
Tue 10:32:11 AM 41.2494 -72.8328 55° Northeast 483 556 21,000 -439 Descending Boston Center
Tue 10:33:14 AM 41.3117 -72.6681 63° Northeast 482 555 21,000  Level Boston Center
Tue 10:34:14 AM 41.3703 -72.5064 64° Northeast 483 556 21,000  Level Boston Center
Tue 10:35:15 AM 41.4303 -72.3444 64° Northeast 485 558 21,000  Level Boston Center
Tue 10:36:15 AM 41.4883 -72.1856 64° Northeast 480 552 21,000  Level Boston Center
Tue 10:37:19 AM 41.5542 -72.0028 64° Northeast 485 558 21,000 -960 Level Boston Center
Tue 10:38:20 AM 41.6081 -71.8258 68° East 483 556 19,000 -1,835 Descending Boston Center
Tue 10:39:20 AM 41.6553 -71.6664 68° East 467 537 17,300 -1,983 Descending Boston Center
Tue 10:40:21 AM 41.6994 -71.5147 69° East 450 518 15,000 -2,032 Descending Boston Center
Tue 10:41:24 AM 41.7511 -71.3683 65° Northeast 409 471 13,100 -1,707 Descending Boston Center
Tue 10:42:24 AM 41.8028 -71.2472 60° Northeast 377 434 11,500 -1,041 Descending Boston Center
Tue 10:43:25 AM 41.8511 -71.1342 60° Northeast 354 407 11,000 -248 Descending Boston Center
Tue 10:44:25 AM 41.9042 -71.0119 60° Northeast 354 407 11,000  Level Boston Center
Tue 10:45:26 AM 41.9528 -70.8989 60° Northeast 352 405 11,000 -49 Level Boston Center
Tue 10:46:27 AM 41.9939 -70.8042 60° Northeast 336 387 10,900 -780 Descending Boston Center
Tue 10:47:29 AM 42.0497 -70.7058 53° Northeast 332 382 9,400 -1,452 Descending Boston Center
Tue 10:48:31 AM 42.1158 -70.6211 44° Northeast 336 387 7,900 -1,623 Descending Boston Center
Tue 10:49:31 AM 42.1958 -70.6125 North 298 343 6,100 -1,934 Descending Boston Center
Tue 10:50:32 AM 42.2833 -70.6472 344° North 273 314 4,000 -1,500 Descending Boston Center
Tue 10:51:35 AM 42.3511 -70.6828 339° North 267 307 3,000 -484 Descending Boston Center
Tue 10:52:36 AM 42.3975 -70.7503 313° West 254 292 3,000 -198 Level Boston Center
Tue 10:53:36 AM 42.3919 -70.8219 264° West 211 243 2,600 -634 Descending Boston Center
Tue 10:54:39 AM 42.3833 -70.8833 259° West 127 146 1,700 -756 Descending KA90
Tue 10:55:51 AM 42.3667 -70.9333 246° West 121 139 900 -714 Descending KA90
Tue 10:56:45 AM 42.3667 -70.9833 270° West 125 144 200 -778 Descending KA90

Login

Don't have an account? Register now (free) for customized features, flight alerts, and more!